Time;durP1;ratioP1;P1;durP2;ratioP2;P2;SDS_P1;SDS_P2;PMS_P1;PMS_P2;Temp;Humidity;BMP_temperature;BMP_pressure;BME280_temperature;BME280_humidity;BME280_pressure;Samples;Min_cycle;Max_cycle;Signal;HPM_P1;HPM_P2
2023/11/11 00:00:32;;;;;;;9.40;2.22;;;;;;;10.11;100.00;98080.25;5092672;28;20024;-47
2023/11/11 00:02:58;;;;;;;5.93;2.05;;;;;;;10.29;100.00;98085.56;5092772;28;20051;-47
2023/11/11 00:05:24;;;;;;;6.57;1.90;;;;;;;10.04;100.00;98085.56;5091327;28;20059;-47
2023/11/11 00:07:51;;;;;;;6.80;1.83;;;;;;;9.96;100.00;98088.41;5092621;28;20027;-47
2023/11/11 00:10:17;;;;;;;6.95;1.85;;;;;;;9.84;100.00;98084.84;5092627;28;20042;-48
2023/11/11 00:12:43;;;;;;;4.90;1.42;;;;;;;10.02;100.00;98081.53;5092611;28;20024;-47
2023/11/11 00:15:09;;;;;;;4.25;1.42;;;;;;;9.99;100.00;98091.41;5092813;28;20035;-48
2023/11/11 00:17:36;;;;;;;7.88;2.00;;;;;;;9.96;100.00;98088.41;5092509;28;20016;-48
2023/11/11 00:20:05;;;;;;;4.68;1.75;;;;;;;10.00;100.00;98087.78;5092071;28;20048;-48
2023/11/11 00:22:31;;;;;;;5.63;1.60;;;;;;;10.09;100.00;98087.53;5092385;28;20024;-48
2023/11/11 00:24:57;;;;;;;7.13;1.38;;;;;;;10.08;100.00;98091.16;5091021;28;20024;-48
2023/11/11 00:27:23;;;;;;;6.18;2.50;;;;;;;10.11;100.00;98101.25;5092227;28;20038;-47
2023/11/11 00:29:50;;;;;;;6.10;1.75;;;;;;;10.12;100.00;98097.59;5092513;28;20362;-48
2023/11/11 00:32:16;;;;;;;5.95;2.83;;;;;;;10.10;100.00;98097.81;5091928;28;20028;-48
2023/11/11 00:34:45;;;;;;;7.65;5.43;;;;;;;10.06;100.00;98107.13;5092243;28;20043;-48
2023/11/11 00:37:11;;;;;;;4.57;1.27;;;;;;;9.93;100.00;98105.34;5092178;28;20028;-48
2023/11/11 00:39:37;;;;;;;5.38;1.50;;;;;;;9.87;100.00;98102.78;5091083;28;20115;-48
2023/11/11 00:42:03;;;;;;;7.07;3.13;;;;;;;9.79;100.00;98107.25;5092101;28;20114;-48
2023/11/11 00:44:28;;;;;;;7.72;2.30;;;;;;;9.77;100.00;98098.78;5092076;28;20059;-48
2023/11/11 00:46:54;;;;;;;6.00;2.17;;;;;;;10.00;100.00;98108.75;5092012;28;20081;-48
2023/11/11 00:49:20;;;;;;;59.58;54.30;;;;;;;10.36;100.00;98111.78;5091885;28;20370;-48
2023/11/11 00:51:45;;;;;;;7.20;3.45;;;;;;;10.35;100.00;98108.34;5092018;28;20028;-48
2023/11/11 00:54:12;;;;;;;7.78;2.80;;;;;;;10.25;100.00;98115.06;5091945;28;20513;-48
2023/11/11 00:56:39;;;;;;;10.40;1.98;;;;;;;10.28;100.00;98115.44;5091863;28;20032;-48
2023/11/11 00:59:10;;;;;;;8.35;1.65;;;;;;;10.34;100.00;98113.81;5092176;28;20093;-48
2023/11/11 01:01:35;;;;;;;5.60;1.60;;;;;;;10.43;100.00;98117.78;5091857;28;20051;-48
2023/11/11 01:04:03;;;;;;;8.43;2.30;;;;;;;10.42;100.00;98116.16;5091855;28;20485;-49
2023/11/11 01:06:29;;;;;;;12.20;2.00;;;;;;;10.37;100.00;98113.41;5091679;28;20028;-49
2023/11/11 01:08:55;;;;;;;8.45;3.22;;;;;;;10.35;100.00;98120.69;5091675;28;20516;-48
2023/11/11 01:11:21;;;;;;;6.38;2.10;;;;;;;10.41;100.00;98113.78;5091775;28;20055;-48
2023/11/11 01:13:48;;;;;;;6.93;2.00;;;;;;;10.39;100.00;98111.38;5091722;28;20085;-48
2023/11/11 01:16:15;;;;;;;6.30;1.48;;;;;;;10.46;100.00;98113.94;5091632;28;20409;-48
2023/11/11 01:18:41;;;;;;;7.85;1.92;;;;;;;10.53;100.00;98110.25;5091703;28;20016;-48
2023/11/11 01:21:06;;;;;;;6.85;3.60;;;;;;;10.56;100.00;98117.69;5090179;28;20051;-48
2023/11/11 01:23:33;;;;;;;7.68;3.20;;;;;;;10.53;100.00;98122.56;5091855;28;20028;-48
2023/11/11 01:26:02;;;;;;;11.02;2.22;;;;;;;10.45;100.00;98123.63;5091891;28;20073;-48
2023/11/11 01:28:29;;;;;;;6.35;2.42;;;;;;;10.69;100.00;98114.16;5091555;28;20454;-48
2023/11/11 01:30:55;;;;;;;7.65;1.75;;;;;;;11.14;100.00;98113.94;5091591;28;20068;-48
2023/11/11 01:33:21;;;;;;;12.32;8.43;;;;;;;11.10;100.00;98118.00;5091531;28;20020;-48
2023/11/11 01:35:48;;;;;;;7.95;3.42;;;;;;;10.84;100.00;98113.00;5090213;28;20020;-48
2023/11/11 01:38:14;;;;;;;14.80;3.13;;;;;;;10.59;100.00;98105.97;5091541;28;20036;-48
2023/11/11 01:40:40;;;;;;;7.90;2.58;;;;;;;10.50;100.00;98102.81;5091488;28;20432;-48
2023/11/11 01:43:14;;;;;;;5.70;2.55;;;;;;;10.61;100.00;98109.19;5092598;28;20081;-49
2023/11/11 01:45:45;;;;;;;5.40;1.65;;;;;;;11.08;100.00;98104.28;5095411;28;20442;-48
2023/11/11 01:48:13;;;;;;;15.02;8.95;;;;;;;11.80;100.00;98104.47;5095256;28;20051;-49
2023/11/11 01:50:42;;;;;;;10.10;2.83;;;;;;;12.04;100.00;98109.84;5093953;28;20394;-48
2023/11/11 01:53:10;;;;;;;9.73;2.05;;;;;;;11.93;100.00;98100.09;5095233;28;20024;-49
2023/11/11 01:55:36;;;;;;;6.40;1.80;;;;;;;11.79;100.00;98100.25;5095084;28;20019;-49
2023/11/11 01:58:04;;;;;;;5.50;2.05;;;;;;;11.44;98.44;98109.78;5093760;28;20121;-49
2023/11/11 02:00:35;;;;;;;26.35;18.17;;;;;;;11.07;98.47;98110.56;5093723;28;20080;-49
2023/11/11 02:03:02;;;;;;;73.53;67.25;;;;;;;11.18;100.00;98107.22;5095004;28;20032;-49
2023/11/11 02:05:28;;;;;;;10.00;8.10;;;;;;;11.51;100.00;98107.84;5094954;28;20670;-49
2023/11/11 02:07:58;;;;;;;8.57;4.43;;;;;;;11.66;100.00;98104.88;5094850;28;20020;-49
2023/11/11 02:10:24;;;;;;;6.00;2.88;;;;;;;11.75;100.00;98109.59;5094819;28;20405;-49
2023/11/11 02:12:52;;;;;;;16.80;14.77;;;;;;;12.10;100.00;98102.91;5094875;28;20051;-49
2023/11/11 02:15:22;;;;;;;8.43;3.30;;;;;;;12.47;100.00;98106.16;5093413;28;20032;-49
2023/11/11 02:17:52;;;;;;;6.18;2.33;;;;;;;13.07;100.00;98107.00;5095011;28;20456;-49
2023/11/11 02:20:18;;;;;;;9.77;2.97;;;;;;;13.62;100.00;98100.50;5094471;28;20105;-48
2023/11/11 02:22:44;;;;;;;8.25;4.32;;;;;;;13.93;100.00;98107.16;5094695;28;20013;-48
2023/11/11 02:25:09;;;;;;;5.95;2.08;;;;;;;13.97;100.00;98105.66;5094639;28;20024;-49
2023/11/11 02:27:35;;;;;;;6.93;2.00;;;;;;;13.76;100.00;98100.00;5093170;28;20177;-49
2023/11/11 02:30:10;;;;;;;6.95;5.10;;;;;;;13.46;100.00;98105.50;5094550;28;20031;-49
2023/11/11 02:32:36;;;;;;;11.68;3.88;;;;;;;13.27;100.00;98094.25;5094833;28;20423;-48
2023/11/11 02:35:03;;;;;;;7.93;2.47;;;;;;;13.29;100.00;98094.84;5093069;28;20056;-49
2023/11/11 02:37:29;;;;;;;6.18;2.00;;;;;;;13.12;100.00;98101.84;5094394;28;20027;-48
2023/11/11 02:39:54;;;;;;;7.50;2.80;;;;;;;13.00;100.00;98107.13;5094350;28;20020;-49
2023/11/11 02:42:20;;;;;;;5.10;1.98;;;;;;;12.98;98.83;98103.94;5094207;28;20024;-48
2023/11/11 02:44:46;;;;;;;7.18;2.58;;;;;;;12.89;96.66;98105.28;5094283;28;20393;-48
2023/11/11 02:47:11;;;;;;;16.90;15.35;;;;;;;13.07;100.00;98107.81;5094072;28;20474;-48
2023/11/11 02:49:37;;;;;;;11.18;3.58;;;;;;;13.37;100.00;98104.25;5094084;28;20469;-48
2023/11/11 02:52:04;;;;;;;8.30;3.30;;;;;;;13.63;100.00;98107.41;5094070;28;20031;-48
2023/11/11 02:54:29;;;;;;;10.65;2.97;;;;;;;14.06;100.00;98100.78;5093961;28;20428;-48
2023/11/11 02:56:55;;;;;;;7.13;2.42;;;;;;;14.81;100.00;98086.47;5092772;28;20035;-48
2023/11/11 02:59:21;;;;;;;5.35;2.08;;;;;;;14.84;100.00;98088.59;5093964;28;20028;-49
2023/11/11 03:01:46;;;;;;;9.52;2.67;;;;;;;14.58;100.00;98087.44;5093881;28;20073;-49
2023/11/11 03:04:12;;;;;;;6.70;2.88;;;;;;;14.19;100.00;98096.03;5093824;28;20052;-48
2023/11/11 03:06:43;;;;;;;4.70;1.70;;;;;;;13.83;100.00;98096.44;5093794;28;20095;-49
2023/11/11 03:09:10;;;;;;;8.90;2.20;;;;;;;13.43;100.00;98094.63;5093706;28;20035;-48
2023/11/11 03:11:37;;;;;;;7.95;1.73;;;;;;;13.02;100.00;98099.81;5093709;28;20100;-48
2023/11/11 03:14:03;;;;;;;13.23;8.73;;;;;;;12.50;100.00;98092.56;5093579;28;20077;-49
2023/11/11 03:16:39;;;;;;;7.55;2.83;;;;;;;11.99;99.81;98093.94;5093605;28;20027;-49
2023/11/11 03:19:06;;;;;;;4.93;2.13;;;;;;;11.75;100.00;98106.97;5093371;28;20024;-50
2023/11/11 03:21:32;;;;;;;7.55;2.05;;;;;;;11.55;100.00;98101.13;5093317;28;20052;-49
2023/11/11 03:23:58;;;;;;;8.95;2.13;;;;;;;11.23;100.00;98100.50;5093413;28;20409;-49
2023/11/11 03:26:24;;;;;;;5.57;2.15;;;;;;;11.02;100.00;98102.53;5075566;28;20062;-49
2023/11/11 03:28:50;;;;;;;7.45;1.83;;;;;;;10.85;100.00;98110.19;5093228;28;20056;-49
2023/11/11 03:31:19;;;;;;;5.15;1.52;;;;;;;10.67;100.00;98107.53;5093274;28;20020;-49
2023/11/11 03:33:48;;;;;;;7.65;2.00;;;;;;;10.39;100.00;98116.59;5093246;28;20024;-49
2023/11/11 03:36:14;;;;;;;6.93;1.80;;;;;;;10.17;100.00;98116.91;5093197;28;20024;-48
2023/11/11 03:38:40;;;;;;;6.25;2.03;;;;;;;10.17;100.00;98110.88;5093199;28;20028;-49
2023/11/11 03:41:07;;;;;;;6.60;1.42;;;;;;;10.30;100.00;98110.84;5093063;28;20113;-49
2023/11/11 03:43:35;;;;;;;9.98;2.20;;;;;;;10.37;100.00;98114.19;5093056;28;20073;-48
2023/11/11 03:46:03;;;;;;;10.15;3.20;;;;;;;10.36;100.00;98122.25;5092986;28;20020;-48
2023/11/11 03:48:29;;;;;;;9.30;2.15;;;;;;;10.30;100.00;98112.63;5092961;28;20024;-49
2023/11/11 03:50:57;;;;;;;7.15;1.80;;;;;;;10.27;100.00;98116.47;5091661;28;20505;-48
2023/11/11 03:53:23;;;;;;;7.25;1.65;;;;;;;10.20;100.00;98115.69;5091588;28;20062;-48
2023/11/11 03:55:49;;;;;;;5.43;1.70;;;;;;;10.07;100.00;98121.03;5091509;28;20125;-48
2023/11/11 03:58:15;;;;;;;7.05;2.00;;;;;;;10.08;100.00;98122.63;5092833;28;20032;-49
2023/11/11 04:00:44;;;;;;;5.30;1.38;;;;;;;10.01;100.00;98133.16;5091409;28;20557;-48
2023/11/11 04:03:11;;;;;;;6.82;1.95;;;;;;;10.02;100.00;98132.16;5092686;28;20030;-49
2023/11/11 04:05:37;;;;;;;6.63;2.25;;;;;;;10.08;100.00;98135.72;5092155;28;20016;-48
2023/11/11 04:08:03;;;;;;;6.88;1.63;;;;;;;10.00;100.00;98134.97;5091208;28;20024;-48
2023/11/11 04:10:30;;;;;;;5.85;1.30;;;;;;;9.97;100.00;98134.59;5091242;28;20027;-49
2023/11/11 04:13:00;;;;;;;10.40;2.33;;;;;;;10.09;100.00;98148.63;5092571;28;20070;-48
2023/11/11 04:15:26;;;;;;;7.75;2.20;;;;;;;10.18;100.00;98146.56;5092564;28;20099;-48
2023/11/11 04:17:52;;;;;;;6.13;1.60;;;;;;;9.97;100.00;98151.09;5091464;28;20035;-48
2023/11/11 04:20:18;;;;;;;9.70;1.85;;;;;;;9.79;100.00;98151.00;5092179;28;20048;-48
2023/11/11 04:22:43;;;;;;;9.13;4.07;;;;;;;9.64;100.00;98156.50;5092397;28;20042;-49
2023/11/11 04:25:10;;;;;;;8.13;2.58;;;;;;;9.60;100.00;98157.94;5090996;28;20225;-49
2023/11/11 04:27:40;;;;;;;6.00;2.10;;;;;;;9.57;100.00;98163.56;5092297;28;20456;-48
2023/11/11 04:30:06;;;;;;;4.57;1.48;;;;;;;9.50;100.00;98162.81;5092258;28;20030;-48
2023/11/11 04:32:36;;;;;;;5.07;1.83;;;;;;;9.44;100.00;98160.97;5092225;28;20074;-48
2023/11/11 04:35:03;;;;;;;9.40;1.50;;;;;;;9.44;100.00;98166.22;5092131;28;20028;-48
2023/11/11 04:37:30;;;;;;;7.07;1.45;;;;;;;9.46;100.00;98169.47;5091159;28;20559;-49
2023/11/11 04:39:57;;;;;;;8.00;2.15;;;;;;;9.40;100.00;98168.47;5092190;28;20035;-48
2023/11/11 04:42:24;;;;;;;5.25;3.30;;;;;;;9.33;100.00;98170.28;5092012;28;20501;-48
2023/11/11 04:44:53;;;;;;;9.82;2.88;;;;;;;9.22;100.00;98179.56;5091098;28;20063;-48
2023/11/11 04:47:20;;;;;;;6.20;2.60;;;;;;;9.13;100.00;98178.16;5091952;28;20077;-48
2023/11/11 04:49:47;;;;;;;7.55;2.60;;;;;;;9.03;99.83;98183.81;5092050;28;20090;-48
2023/11/11 04:52:13;;;;;;;5.88;2.13;;;;;;;9.02;100.00;98191.88;5091892;28;20026;-48
2023/11/11 04:54:38;;;;;;;5.18;1.80;;;;;;;9.17;100.00;98185.41;5092034;28;20103;-48
2023/11/11 04:57:05;;;;;;;7.60;2.22;;;;;;;9.38;100.00;98187.00;5090706;28;20020;-49
2023/11/11 04:59:31;;;;;;;5.13;2.63;;;;;;;9.46;98.69;98185.97;5091876;28;20083;-48
2023/11/11 05:01:57;;;;;;;5.32;1.63;;;;;;;9.75;100.00;98184.66;5091957;28;20040;-48
2023/11/11 05:04:23;;;;;;;7.97;2.63;;;;;;;9.83;99.65;98185.47;5091933;28;20030;-48
2023/11/11 05:06:50;;;;;;;8.77;3.53;;;;;;;9.75;100.00;98183.88;5091956;28;20077;-49
2023/11/11 05:09:16;;;;;;;8.65;2.60;;;;;;;9.94;100.00;98180.38;5090463;28;20020;-48
2023/11/11 05:11:45;;;;;;;7.93;2.63;;;;;;;9.94;100.00;98184.78;5091715;28;20506;-48
2023/11/11 05:14:13;;;;;;;11.75;2.83;;;;;;;9.83;96.77;98182.84;5091796;28;20031;-48
2023/11/11 05:16:44;;;;;;;11.70;2.30;;;;;;;9.74;97.19;98188.31;5091986;28;20089;-48
2023/11/11 05:19:12;;;;;;;25.33;20.08;;;;;;;9.58;95.98;98186.16;5094832;28;20035;-48
2023/11/11 05:21:38;;;;;;;10.15;4.72;;;;;;;9.40;95.19;98181.56;5095558;28;20052;-48
2023/11/11 05:24:05;;;;;;;32.25;28.35;;;;;;;9.28;95.03;98188.44;5095677;28;20127;-48
2023/11/11 05:26:31;;;;;;;9.18;5.93;;;;;;;9.32;96.51;98187.03;5095736;28;20024;-49
2023/11/11 05:28:57;;;;;;;13.32;3.47;;;;;;;9.56;99.67;98185.56;5095618;28;20492;-48
2023/11/11 05:31:25;;;;;;;6.88;2.40;;;;;;;10.19;100.00;98192.75;5095585;28;20055;-48
2023/11/11 05:33:51;;;;;;;12.52;9.75;;;;;;;10.57;100.00;98191.97;5095890;28;20221;-48
2023/11/11 05:36:19;;;;;;;9.88;4.47;;;;;;;10.88;100.00;98187.69;5095559;28;20447;-48
2023/11/11 05:38:47;;;;;;;8.25;3.85;;;;;;;10.52;98.18;98200.47;5095479;28;20063;-49
2023/11/11 05:41:16;;;;;;;10.80;5.32;;;;;;;10.32;99.76;98195.34;5094098;28;20023;-48
2023/11/11 05:43:42;;;;;;;17.50;13.15;;;;;;;10.46;100.00;98203.91;5095458;28;20025;-48
2023/11/11 05:46:08;;;;;;;50.92;44.45;;;;;;;10.56;100.00;98192.97;5094320;28;20429;-48
2023/11/11 05:48:37;;;;;;;132.05;118.78;;;;;;;10.48;97.49;98199.25;5095259;28;20027;-48
2023/11/11 05:51:05;;;;;;;39.28;34.97;;;;;;;10.04;95.34;98206.16;5093915;28;20024;-48
2023/11/11 05:53:34;;;;;;;34.83;29.70;;;;;;;9.60;97.28;98216.38;5095240;28;20020;-48
2023/11/11 05:56:00;;;;;;;83.88;75.65;;;;;;;9.45;100.00;98228.09;5093856;28;20039;-48
2023/11/11 05:58:25;;;;;;;111.65;100.95;;;;;;;9.31;100.00;98222.84;5095097;28;20020;-48
2023/11/11 06:00:52;;;;;;;9.60;4.50;;;;;;;8.84;99.89;98229.13;5095117;28;20047;-48
2023/11/11 06:03:18;;;;;;;22.67;18.95;;;;;;;8.49;100.00;98232.69;5095055;28;20028;-49
2023/11/11 06:05:45;;;;;;;43.70;38.95;;;;;;;8.62;100.00;98228.50;5095153;28;20653;-49
2023/11/11 06:08:11;;;;;;;12.63;8.25;;;;;;;8.90;100.00;98239.59;5093580;28;20497;-49
2023/11/11 06:10:38;;;;;;;45.53;41.28;;;;;;;9.55;100.00;98233.69;5094890;28;20064;-49
2023/11/11 06:13:07;;;;;;;62.13;51.50;;;;;;;10.29;100.00;98226.41;5093514;28;20031;-49
2023/11/11 06:15:36;;;;;;;43.83;39.30;;;;;;;10.83;100.00;98225.09;5094850;28;20074;-49
2023/11/11 06:18:02;;;;;;;17.83;13.00;;;;;;;11.03;100.00;98226.75;5094776;28;20017;-49
2023/11/11 06:20:28;;;;;;;12.90;7.55;;;;;;;10.88;100.00;98229.69;5092758;28;20138;-50
2023/11/11 06:22:54;;;;;;;8.75;3.33;;;;;;;10.66;100.00;98230.03;5093664;28;20044;-49
2023/11/11 06:25:21;;;;;;;9.60;4.15;;;;;;;10.17;97.64;98231.50;5094626;28;20017;-49
2023/11/11 06:27:48;;;;;;;6.35;3.63;;;;;;;9.68;95.42;98241.53;5094557;28;20556;-49
2023/11/11 06:30:19;;;;;;;7.13;4.53;;;;;;;9.34;96.53;98242.63;5093988;28;20024;-49
2023/11/11 06:32:45;;;;;;;11.65;5.47;;;;;;;9.45;100.00;98247.22;5094488;28;20028;-48
2023/11/11 06:35:12;;;;;;;10.05;5.05;;;;;;;9.86;100.00;98242.69;5094745;28;20032;-48
2023/11/11 06:37:41;;;;;;;5.32;3.10;;;;;;;10.51;100.00;98247.91;5094405;28;20027;-49
2023/11/11 06:40:12;;;;;;;7.88;2.95;;;;;;;10.88;100.00;98248.88;5094549;28;20093;-49
2023/11/11 06:42:38;;;;;;;6.50;2.53;;;;;;;11.18;100.00;98250.88;5094366;28;20482;-48
2023/11/11 06:45:05;;;;;;;5.82;2.65;;;;;;;11.62;100.00;98256.94;5094236;28;20036;-49
2023/11/11 06:47:32;;;;;;;6.03;2.85;;;;;;;11.82;100.00;98266.47;5094143;28;20031;-48
2023/11/11 06:49:58;;;;;;;7.10;2.33;;;;;;;11.98;100.00;98258.81;5094164;28;20565;-49
2023/11/11 06:52:23;;;;;;;7.45;3.90;;;;;;;11.97;100.00;98253.78;5092792;28;20028;-49
2023/11/11 06:54:49;;;;;;;26.10;22.80;;;;;;;11.98;100.00;98268.53;5094082;28;20035;-49
2023/11/11 06:57:16;;;;;;;8.63;3.55;;;;;;;12.61;100.00;98279.72;5093960;28;20031;-49
2023/11/11 06:59:42;;;;;;;4.60;1.90;;;;;;;12.91;100.00;98275.22;5092786;28;20036;-49
2023/11/11 07:02:12;;;;;;;4.05;1.90;;;;;;;12.69;100.00;98271.50;5092571;28;20027;-49
2023/11/11 07:04:42;;;;;;;8.43;2.97;;;;;;;12.69;100.00;98287.28;5093865;28;20032;-49
2023/11/11 07:07:12;;;;;;;6.85;2.92;;;;;;;12.80;100.00;98283.91;5092741;28;20032;-49
2023/11/11 07:09:41;;;;;;;5.50;2.10;;;;;;;12.35;99.89;98286.91;5093907;28;20032;-48
2023/11/11 07:12:07;;;;;;;8.20;4.07;;;;;;;12.24;100.00;98295.56;5093592;28;20024;-48
2023/11/11 07:14:34;;;;;;;6.80;2.83;;;;;;;12.38;100.00;98297.81;5093757;28;20031;-48
2023/11/11 07:17:00;;;;;;;6.72;2.20;;;;;;;12.45;100.00;98297.72;5093622;28;20020;-48
2023/11/11 07:19:26;;;;;;;10.98;7.68;;;;;;;12.59;100.00;98296.53;5092383;28;20039;-48
2023/11/11 07:21:52;;;;;;;8.77;2.78;;;;;;;12.57;100.00;98293.31;5093273;28;20460;-48
2023/11/11 07:24:19;;;;;;;15.02;13.38;;;;;;;12.28;100.00;98296.75;5092214;28;20020;-48
2023/11/11 07:26:45;;;;;;;11.77;4.28;;;;;;;11.93;100.00;98294.66;5093380;28;20016;-48
2023/11/11 07:29:10;;;;;;;8.60;3.15;;;;;;;11.60;100.00;98301.03;5093280;28;20019;-48
2023/11/11 07:31:37;;;;;;;6.05;2.53;;;;;;;11.27;99.22;98302.13;5093270;28;20032;-49
2023/11/11 07:34:03;;;;;;;7.13;2.50;;;;;;;10.93;98.37;98303.38;5093518;28;20442;-49
2023/11/11 07:36:29;;;;;;;5.28;2.20;;;;;;;10.80;99.79;98312.13;5091941;28;20114;-48
2023/11/11 07:38:55;;;;;;;7.13;2.47;;;;;;;11.29;100.00;98307.16;5093222;28;20035;-48
2023/11/11 07:41:20;;;;;;;5.57;2.55;;;;;;;11.88;100.00;98297.94;5092305;28;20103;-48
2023/11/11 07:43:46;;;;;;;7.90;3.35;;;;;;;12.08;100.00;98310.91;5091831;28;20028;-48
2023/11/11 07:46:12;;;;;;;10.75;5.80;;;;;;;12.00;100.00;98316.47;5091736;28;20085;-49
2023/11/11 07:48:38;;;;;;;10.15;3.95;;;;;;;11.93;100.00;98310.44;5092967;28;20065;-48
2023/11/11 07:51:05;;;;;;;8.02;3.63;;;;;;;11.80;100.00;98309.53;5091606;28;20028;-48
2023/11/11 07:53:32;;;;;;;13.95;5.40;;;;;;;11.78;100.00;98306.31;5092975;28;20563;-48
2023/11/11 07:56:01;;;;;;;11.95;8.30;;;;;;;11.89;100.00;98314.53;5092848;28;20028;-48
2023/11/11 07:58:27;;;;;;;7.88;3.97;;;;;;;12.03;100.00;98310.75;5093168;28;20028;-48
2023/11/11 08:00:53;;;;;;;14.82;7.80;;;;;;;12.38;100.00;98318.06;5092810;28;20406;-48
2023/11/11 08:03:19;;;;;;;9.18;4.18;;;;;;;12.98;100.00;98315.44;5092654;28;20107;-49
2023/11/11 08:05:45;;;;;;;7.40;3.13;;;;;;;13.59;98.28;98307.44;5091410;28;20089;-48
2023/11/11 08:08:10;;;;;;;8.75;5.35;;;;;;;13.95;96.01;98309.03;5091276;28;20016;-49
2023/11/11 08:10:36;;;;;;;591.58;527.60;;;;;;;14.02;95.00;98310.72;5092789;28;20066;-49
2023/11/11 08:13:04;;;;;;;62.47;49.90;;;;;;;13.76;93.78;98320.72;5092560;28;20024;-49
2023/11/11 08:15:30;;;;;;;11.50;8.27;;;;;;;14.08;94.66;98315.88;5091186;28;20458;-49
2023/11/11 08:17:56;;;;;;;13.10;4.65;;;;;;;14.41;91.03;98319.72;5091188;28;20043;-48
2023/11/11 08:20:23;;;;;;;8.20;2.58;;;;;;;14.61;90.47;98311.44;5092469;28;20020;-48
2023/11/11 08:22:50;;;;;;;7.40;4.65;;;;;;;14.53;90.35;98320.50;5092168;28;20131;-49
2023/11/11 08:25:16;;;;;;;11.82;5.45;;;;;;;14.60;91.47;98316.94;5092314;28;20115;-48
2023/11/11 08:27:45;;;;;;;10.38;3.78;;;;;;;14.48;90.86;98317.75;5092276;28;20505;-48
2023/11/11 08:30:11;;;;;;;6.32;2.25;;;;;;;14.68;89.37;98313.94;5092307;28;20103;-48
2023/11/11 08:32:41;;;;;;;14.52;7.45;;;;;;;14.86;90.41;98323.50;5090947;28;20016;-49
2023/11/11 08:35:08;;;;;;;11.65;5.18;;;;;;;14.96;87.47;98328.97;5092050;28;20032;-48
2023/11/11 08:37:34;;;;;;;8.48;2.55;;;;;;;15.20;85.57;98326.19;5090922;28;20024;-49
2023/11/11 08:40:06;;;;;;;6.25;2.42;;;;;;;15.44;84.85;98318.91;5090839;28;20397;-49
2023/11/11 08:42:33;;;;;;;4.93;3.03;;;;;;;15.73;82.51;98319.63;5092096;28;20494;-49
2023/11/11 08:44:58;;;;;;;16.75;3.17;;;;;;;16.11;81.41;98318.84;5090786;28;20020;-49
2023/11/11 08:47:27;;;;;;;11.40;2.88;;;;;;;16.37;80.66;98322.59;5090655;28;20130;-47
2023/11/11 08:49:55;;;;;;;11.75;2.97;;;;;;;16.34;81.62;98319.66;5090867;28;20100;-47
2023/11/11 08:52:23;;;;;;;8.52;2.90;;;;;;;16.28;80.62;98325.91;5091746;28;20048;-47
2023/11/11 08:54:52;;;;;;;8.27;2.88;;;;;;;16.12;81.06;98314.38;5091972;28;20028;-47
2023/11/11 08:57:18;;;;;;;3.90;1.98;;;;;;;15.93;81.65;98321.78;5090589;28;20027;-47
2023/11/11 08:59:43;;;;;;;7.45;2.13;;;;;;;15.57;81.52;98329.16;5091916;28;20044;-47
2023/11/11 09:02:09;;;;;;;5.75;2.47;;;;;;;15.35;84.46;98335.19;5090569;28;20487;-47
2023/11/11 09:04:36;;;;;;;7.32;4.82;;;;;;;15.54;85.33;98325.16;5091893;28;20103;-47
2023/11/11 09:07:02;;;;;;;4.53;1.92;;;;;;;15.66;83.62;98329.56;5091850;28;20126;-47
2023/11/11 09:09:29;;;;;;;5.55;2.55;;;;;;;16.11;81.52;98329.44;5091784;28;20020;-47
2023/11/11 09:11:56;;;;;;;12.90;5.00;;;;;;;16.47;77.02;98323.78;5091724;28;20434;-47
2023/11/11 09:14:23;;;;;;;5.93;2.22;;;;;;;16.81;76.31;98332.41;5092045;28;20028;-47
2023/11/11 09:16:49;;;;;;;7.80;2.38;;;;;;;16.94;77.96;98324.06;5090456;28;20582;-47
2023/11/11 09:19:14;;;;;;;8.52;2.42;;;;;;;16.91;79.35;98327.19;5090412;28;20064;-47
2023/11/11 09:21:40;;;;;;;9.20;2.33;;;;;;;16.77;79.42;98339.22;5090141;28;20044;-47
2023/11/11 09:24:09;;;;;;;7.70;2.63;;;;;;;16.43;79.90;98328.75;5091664;28;20040;-47
2023/11/11 09:26:35;;;;;;;15.93;2.60;;;;;;;15.97;78.30;98331.63;5091650;28;20050;-47
2023/11/11 09:29:00;;;;;;;12.05;2.67;;;;;;;15.87;79.42;98331.47;5091539;28;20020;-47
2023/11/11 09:31:29;;;;;;;11.52;4.63;;;;;;;15.90;79.89;98333.66;5091626;28;20031;-47
2023/11/11 09:34:00;;;;;;;7.78;2.50;;;;;;;16.11;79.92;98331.28;5091540;28;20020;-47
2023/11/11 09:36:27;;;;;;;8.02;3.15;;;;;;;16.09;83.25;98338.66;5091539;28;20020;-46
2023/11/11 09:38:53;;;;;;;6.63;2.35;;;;;;;16.74;84.02;98334.41;5090373;28;20044;-47
2023/11/11 09:41:19;;;;;;;6.82;2.42;;;;;;;18.25;81.75;98349.41;5091569;28;20566;-47
2023/11/11 09:43:45;;;;;;;8.80;3.00;;;;;;;19.99;77.54;98338.25;5090199;28;20498;-47
2023/11/11 09:46:17;;;;;;;6.28;2.95;;;;;;;21.19;69.50;98335.56;5090165;28;20028;-47
2023/11/11 09:48:43;;;;;;;10.45;5.80;;;;;;;22.34;67.51;98338.53;5073800;28;20032;-47
2023/11/11 09:51:10;;;;;;;8.77;3.75;;;;;;;23.12;64.14;98337.22;5090273;28;20391;-47
2023/11/11 09:53:40;;;;;;;5.38;2.53;;;;;;;23.78;59.31;98323.03;5091489;28;20036;-48
2023/11/11 09:56:07;;;;;;;8.35;3.45;;;;;;;24.27;57.63;98337.69;5091366;28;20052;-47
2023/11/11 09:58:35;;;;;;;5.55;2.20;;;;;;;24.67;56.07;98337.94;5090145;28;20028;-47
2023/11/11 10:01:01;;;;;;;5.65;2.42;;;;;;;25.09;55.93;98330.53;5091399;28;20020;-48
2023/11/11 10:03:26;;;;;;;10.98;7.05;;;;;;;25.80;54.29;98340.69;5091525;28;20028;-48
2023/11/11 10:05:53;;;;;;;10.43;7.28;;;;;;;26.25;48.60;98340.56;5095065;28;20017;-47
2023/11/11 10:08:23;;;;;;;9.43;5.15;;;;;;;26.42;48.23;98340.59;5094897;28;20020;-47
2023/11/11 10:10:52;;;;;;;12.20;6.20;;;;;;;26.30;43.36;98346.59;5094081;28;20036;-48
2023/11/11 10:13:19;;;;;;;109.53;99.45;;;;;;;26.24;43.94;98341.63;5094949;28;20024;-45
2023/11/11 10:15:45;;;;;;;69.68;62.70;;;;;;;26.46;42.27;98333.50;5093519;28;20028;-45
2023/11/11 10:18:13;;;;;;;31.60;28.30;;;;;;;26.58;41.87;98338.28;5094810;28;20108;-45
2023/11/11 10:20:39;;;;;;;46.85;42.63;;;;;;;26.86;42.28;98335.28;5094915;28;20028;-46
2023/11/11 10:23:04;;;;;;;26.60;23.95;;;;;;;26.98;39.69;98321.97;5093465;28;20490;-45
2023/11/11 10:25:31;;;;;;;32.53;26.38;;;;;;;26.88;42.36;98327.69;5094643;28;20055;-46
2023/11/11 10:27:59;;;;;;;15.25;11.02;;;;;;;26.83;42.41;98320.56;5094507;28;20020;-45
2023/11/11 10:30:26;;;;;;;20.45;14.60;;;;;;;26.24;40.93;98312.88;5094495;28;20032;-45
2023/11/11 10:32:53;;;;;;;10.80;6.00;;;;;;;25.45;42.02;98319.75;5093201;28;20028;-45
2023/11/11 10:35:20;;;;;;;8.77;4.45;;;;;;;24.55;42.55;98310.81;5094500;28;20031;-45
2023/11/11 10:37:47;;;;;;;9.05;2.85;;;;;;;23.98;43.16;98311.16;5093517;28;20089;-45
2023/11/11 10:40:17;;;;;;;6.78;2.92;;;;;;;23.65;46.12;98306.63;5094640;28;20047;-46
2023/11/11 10:42:48;;;;;;;7.18;2.08;;;;;;;23.32;43.83;98303.97;5076867;28;20528;-45
2023/11/11 10:45:15;;;;;;;7.53;2.40;;;;;;;23.32;42.78;98303.97;5093018;28;20410;-47
2023/11/11 10:47:46;;;;;;;4.65;1.45;;;;;;;23.68;41.82;98297.19;5092895;28;20081;-47
2023/11/11 10:50:13;;;;;;;6.47;1.48;;;;;;;23.92;40.51;98308.59;5094239;28;20026;-47
2023/11/11 10:52:39;;;;;;;7.75;2.00;;;;;;;23.92;41.42;98300.53;5094148;28;20106;-47
2023/11/11 10:55:10;;;;;;;4.93;1.70;;;;;;;23.67;39.10;98309.03;5092738;28;20564;-47
2023/11/11 10:57:42;;;;;;;5.22;1.73;;;;;;;23.33;38.85;98308.22;5094059;28;20031;-47
2023/11/11 11:00:21;;;;;;;6.68;2.38;;;;;;;23.41;39.23;98306.78;5092650;28;20282;-47
2023/11/11 11:02:48;;;;;;;7.00;2.28;;;;;;;23.72;39.04;98301.69;5093973;28;20046;-47
2023/11/11 11:05:52;;;;;;;20.85;16.60;;;;;;;24.21;38.90;98294.06;5093862;28;20028;-47
2023/11/11 11:08:34;;;;;;;6.80;2.53;;;;;;;24.74;37.46;98290.00;5093790;28;20081;-48
2023/11/11 11:11:21;;;;;;;4.90;1.67;;;;;;;25.24;36.83;98286.47;5093780;28;20375;-47
2023/11/11 11:13:49;;;;;;;10.25;5.15;;;;;;;25.40;35.51;98284.97;5093759;28;20028;-47
2023/11/11 11:16:17;;;;;;;9.10;3.67;;;;;;;25.20;35.47;98274.72;5092451;28;20016;-48
2023/11/11 11:18:53;;;;;;;7.30;2.47;;;;;;;25.38;37.00;98275.66;5093616;28;20047;-47
2023/11/11 11:21:20;;;;;;;7.30;2.17;;;;;;;25.68;35.85;98274.84;5093524;28;20074;-45
2023/11/11 11:23:49;;;;;;;5.80;2.22;;;;;;;25.60;34.53;98274.81;5092351;28;20024;-45
2023/11/11 11:26:29;;;;;;;6.40;1.95;;;;;;;25.71;36.21;98263.44;5093465;28;20035;-46